KADG/ADG METAR and TAF weather

Enter ICAO airport designator
Station Type Date Time Source
KADG METAR 2021/07/26 11:53 UTC NOAA

KADG 261153Z AUTO 00000KT 10SM CLR 19/16 A3001 RMK AO2 SLP160 T01890161 10194 20161 53010 $


Station Type Date Time Source
KADG Decoded METAR 2021/07/26 11:53 UTC NOAA

ADRIAN LENAWEE COUNTY AIRPORT, MI, United States (KADG) 41-52N 84-05W 241M
Jul 26, 2021 - 07:53 AM EDT / 2021.07.26 1153 UTC
Wind: Calm:0
Visibility: 10 mile(s):0
Sky conditions: clear
Temperature: 66.0 F (18.9 C)
Dew Point: 61.0 F (16.1 C)
Relative Humidity: 83%
Pressure (altimeter): 30.01 in. Hg (1016 hPa)
Pressure tendency: 0.03 inches (1.0 hPa) higher than three hours ago
ob: KADG 261153Z AUTO 00000KT 10SM CLR 19/16 A3001 RMK AO2 SLP160 T01890161 10194 20161 53010
cycle: 12

Station Type Date Time Source
KADG TAF UTC NOAA

Error!

Example: see airport list